Time;durP1;ratioP1;P1;durP2;ratioP2;P2;SDS_P1;SDS_P2;PMS_P1;PMS_P2;Temp;Humidity;BMP_temperature;BMP_pressure;BME280_temperature;BME280_humidity;BME280_pressure;Samples;Min_cycle;Max_cycle;Signal;HPM_P1;HPM_P2
2021/11/02 00:00:40;;;;;;;5.75;2.78;;;8.80;99.90;;;;;;5050693;28;20137;-79
2021/11/02 00:03:08;;;;;;;6.07;2.97;;;8.80;99.90;;;;;;5050918;28;20099;-78
2021/11/02 00:05:36;;;;;;;6.03;3.17;;;8.80;99.90;;;;;;5050755;28;20053;-79
2021/11/02 00:08:05;;;;;;;5.68;3.53;;;8.80;99.90;;;;;;5032093;28;20081;-77
2021/11/02 00:10:33;;;;;;;5.10;3.30;;;8.80;99.90;;;;;;5050224;28;20135;-78
2021/11/02 00:13:02;;;;;;;5.25;3.13;;;8.70;99.90;;;;;;5049835;28;20152;-78
2021/11/02 00:15:37;;;;;;;6.45;3.97;;;8.70;99.90;;;;;;5050494;28;20083;-80
2021/11/02 00:18:06;;;;;;;6.55;3.50;;;8.60;99.90;;;;;;5050422;28;20049;-78
2021/11/02 00:20:34;;;;;;;5.10;3.25;;;8.60;99.90;;;;;;5045679;28;20046;-77
2021/11/02 00:23:03;;;;;;;5.80;3.10;;;8.50;99.90;;;;;;5040196;28;20049;-80
2021/11/02 00:25:32;;;;;;;7.15;3.65;;;8.50;99.90;;;;;;5049633;28;20041;-80
2021/11/02 00:28:03;;;;;;;5.05;3.05;;;8.40;99.90;;;;;;5049741;28;20047;-80
2021/11/02 00:30:31;;;;;;;5.05;3.28;;;8.40;99.90;;;;;;5049701;28;20056;-79
2021/11/02 00:32:59;;;;;;;5.18;3.20;;;8.40;99.90;;;;;;5049598;28;20137;-78
2021/11/02 00:35:27;;;;;;;5.60;2.95;;;8.40;99.90;;;;;;5049172;28;20053;-80
2021/11/02 00:37:54;;;;;;;5.93;3.20;;;8.40;99.90;;;;;;5050466;28;20562;-80
2021/11/02 00:40:22;;;;;;;6.53;3.40;;;8.40;99.90;;;;;;5073245;28;20131;-78
2021/11/02 00:42:52;;;;;;;6.95;3.53;;;8.40;99.90;;;;;;5067001;28;20131;-78
2021/11/02 00:45:30;;;;;;;6.35;3.60;;;8.50;99.90;;;;;;5055219;28;20060;-79
2021/11/02 00:47:58;;;;;;;6.72;3.63;;;8.50;99.90;;;;;;5053499;28;20528;-79
2021/11/02 00:50:26;;;;;;;6.80;4.05;;;8.50;99.90;;;;;;5053458;28;20141;-80
2021/11/02 00:52:53;;;;;;;6.05;3.83;;;8.50;99.90;;;;;;5053844;28;20060;-79
2021/11/02 00:55:21;;;;;;;8.45;4.07;;;8.50;99.90;;;;;;5052790;28;20466;-77
2021/11/02 00:57:48;;;;;;;5.78;3.60;;;8.50;99.90;;;;;;5053307;28;20076;-79
2021/11/02 01:00:19;;;;;;;6.43;3.85;;;8.50;99.90;;;;;;5050516;28;20511;-79
2021/11/02 01:02:46;;;;;;;5.63;3.70;;;8.50;99.90;;;;;;5053252;28;20103;-79
2021/11/02 01:05:15;;;;;;;6.50;3.97;;;8.50;99.90;;;;;;5053080;28;20132;-78
2021/11/02 01:07:43;;;;;;;6.47;3.70;;;8.50;99.90;;;;;;5052885;28;20502;-79
2021/11/02 01:10:16;;;;;;;7.03;3.90;;;8.50;99.90;;;;;;5052764;28;20048;-79
2021/11/02 01:12:44;;;;;;;6.32;4.03;;;8.50;99.90;;;;;;5053015;28;20049;-78
2021/11/02 01:15:12;;;;;;;6.03;3.63;;;8.50;99.90;;;;;;5052942;28;20136;-79
2021/11/02 01:17:41;;;;;;;6.65;3.83;;;8.40;99.90;;;;;;5052110;28;20132;-78
2021/11/02 01:20:12;;;;;;;6.22;3.60;;;8.30;99.90;;;;;;5034795;28;20124;-78
2021/11/02 01:22:41;;;;;;;6.97;3.70;;;8.30;99.90;;;;;;5032947;28;20518;-77
2021/11/02 01:25:10;;;;;;;5.63;3.70;;;8.30;99.90;;;;;;5032413;28;20101;-77
2021/11/02 01:27:40;;;;;;;5.68;3.45;;;8.30;99.90;;;;;;5045619;28;20128;-79
2021/11/02 01:30:08;;;;;;;5.63;3.63;;;8.30;99.90;;;;;;5051971;28;20176;-80
2021/11/02 01:32:35;;;;;;;6.57;3.67;;;8.30;99.90;;;;;;5052183;28;20443;-78
2021/11/02 01:35:04;;;;;;;6.80;4.25;;;8.40;99.90;;;;;;5052107;28;20045;-79
2021/11/02 01:37:32;;;;;;;5.22;3.53;;;8.30;99.90;;;;;;5052179;28;20080;-78
2021/11/02 01:40:00;;;;;;;5.32;3.63;;;8.40;99.90;;;;;;5052039;28;20187;-80
2021/11/02 01:42:27;;;;;;;6.68;4.25;;;8.40;99.90;;;;;;5051823;28;20147;-78
2021/11/02 01:44:54;;;;;;;6.55;3.65;;;8.40;99.90;;;;;;5051906;28;20533;-78
2021/11/02 01:47:22;;;;;;;6.78;3.63;;;8.40;99.90;;;;;;5051675;28;20126;-79
2021/11/02 01:49:50;;;;;;;6.22;3.97;;;8.40;99.90;;;;;;5051601;28;20057;-80
2021/11/02 01:52:19;;;;;;;6.43;4.15;;;8.50;99.90;;;;;;5051854;28;20136;-79
2021/11/02 01:54:46;;;;;;;8.82;3.90;;;8.50;99.90;;;;;;5051853;28;20049;-78
2021/11/02 01:57:13;;;;;;;6.05;3.60;;;8.40;99.90;;;;;;5051537;28;20049;-79
2021/11/02 01:59:41;;;;;;;6.30;3.85;;;8.40;99.90;;;;;;5051839;28;20102;-79
2021/11/02 02:02:14;;;;;;;6.72;3.95;;;8.40;99.90;;;;;;5051874;28;20122;-79
2021/11/02 02:04:54;;;;;;;6.65;3.90;;;8.30;99.90;;;;;;5051701;28;20122;-79
2021/11/02 02:07:33;;;;;;;5.95;3.70;;;8.30;99.90;;;;;;5051415;28;20132;-80
2021/11/02 02:10:09;;;;;;;7.43;3.85;;;8.30;99.90;;;;;;5051255;28;20045;-77
2021/11/02 02:12:52;;;;;;;5.93;4.10;;;8.30;99.90;;;;;;5054074;28;20036;-78
2021/11/02 02:15:25;;;;;;;6.43;3.97;;;8.40;99.90;;;;;;5055477;28;20129;-77
2021/11/02 02:17:58;;;;;;;6.78;4.00;;;8.40;99.90;;;;;;5055564;28;20124;-79
2021/11/02 02:21:02;;;;;;;9.02;3.70;;;8.30;99.90;;;;;;5055934;28;20140;-78
2021/11/02 02:23:53;;;;;;;5.05;3.10;;;8.30;99.90;;;;;;5055740;28;20132;-77
2021/11/02 02:26:36;;;;;;;5.32;3.15;;;8.40;99.90;;;;;;5053959;28;20410;-79
2021/11/02 02:29:07;;;;;;;5.40;3.33;;;8.40;99.90;;;;;;5055520;28;20509;-79
2021/11/02 02:31:39;;;;;;;5.43;2.97;;;8.50;99.90;;;;;;5055597;28;20160;-80
2021/11/02 02:34:11;;;;;;;6.88;3.17;;;8.50;99.90;;;;;;5055284;28;20140;-81
2021/11/02 02:36:40;;;;;;;4.57;3.10;;;8.50;99.90;;;;;;5055235;28;20098;-79
2021/11/02 02:39:10;;;;;;;5.57;2.95;;;8.50;99.90;;;;;;5055014;28;20132;-78
2021/11/02 02:41:40;;;;;;;5.13;2.80;;;8.50;99.90;;;;;;5055486;28;20045;-78
2021/11/02 02:44:11;;;;;;;5.90;2.80;;;8.50;99.90;;;;;;5055402;28;20169;-78
2021/11/02 02:46:40;;;;;;;5.80;2.90;;;8.60;99.90;;;;;;5055167;28;20147;-77
2021/11/02 02:49:09;;;;;;;5.95;2.90;;;8.60;99.90;;;;;;5055199;28;20049;-79
2021/11/02 02:51:37;;;;;;;5.60;3.10;;;8.60;99.90;;;;;;5055295;28;20135;-78
2021/11/02 02:54:07;;;;;;;5.30;3.20;;;8.60;99.90;;;;;;5055197;28;20152;-79
2021/11/02 02:56:34;;;;;;;5.35;3.25;;;8.70;99.90;;;;;;5055001;28;20044;-78
2021/11/02 02:59:04;;;;;;;4.82;3.08;;;8.60;99.90;;;;;;5054988;28;20582;-80
2021/11/02 03:01:33;;;;;;;5.35;2.85;;;8.60;99.90;;;;;;5054781;28;20056;-78
2021/11/02 03:04:07;;;;;;;5.82;3.03;;;8.60;99.90;;;;;;5054964;28;20083;-80
2021/11/02 03:06:44;;;;;;;5.72;2.97;;;8.60;99.90;;;;;;5054730;28;20077;-78
2021/11/02 03:09:12;;;;;;;4.50;2.80;;;8.60;99.90;;;;;;5054405;28;20044;-79
2021/11/02 03:11:40;;;;;;;5.35;2.70;;;8.60;99.90;;;;;;5054684;28;20091;-80
2021/11/02 03:14:11;;;;;;;4.68;2.70;;;8.70;99.90;;;;;;5054575;28;20084;-79
2021/11/02 03:16:52;;;;;;;5.00;2.75;;;8.70;99.90;;;;;;5054448;28;20076;-80
2021/11/02 03:44:59;;;;;;;6.30;2.10;;;8.60;99.90;;;;;;5054035;28;20091;-80
2021/11/02 03:50:39;;;;;;;4.82;2.20;;;8.60;99.90;;;;;;5054183;28;20126;-80
2021/11/02 03:56:07;;;;;;;3.75;1.70;;;8.70;99.90;;;;;;5054890;28;20144;-80
2021/11/02 03:58:41;;;;;;;4.07;1.50;;;8.70;99.90;;;;;;5074144;28;20711;-80
2021/11/02 04:23:53;;;;;;;4.50;1.90;;;8.70;99.90;;;;;;5050069;28;20052;-78
2021/11/02 04:32:25;;;;;;;;;;;8.40;99.90;;;;;;5050141;28;20045;-79
2021/11/02 05:47:57;;;;;;;;;;;7.70;99.90;;;;;;5051890;28;20114;-78
2021/11/02 05:50:56;;;;;;;3.78;2.10;;;7.70;99.90;;;;;;5051920;28;20382;-77
2021/11/02 05:53:43;;;;;;;4.38;2.10;;;7.70;99.90;;;;;;5051677;28;20051;-78
2021/11/02 05:56:18;;;;;;;4.65;2.40;;;7.70;99.90;;;;;;5051785;28;20048;-79
2021/11/02 05:58:50;;;;;;;;;;;7.70;99.90;;;;;;5052113;28;20052;-80
2021/11/02 06:01:27;;;;;;;4.90;2.40;;;7.70;99.90;;;;;;5051900;28;19936;-80
2021/11/02 06:03:59;;;;;;;5.25;2.53;;;7.60;99.90;;;;;;5051910;28;20087;-79
2021/11/02 06:06:39;;;;;;;4.90;2.63;;;7.50;99.90;;;;;;5052065;28;20045;-79
2021/11/02 06:09:15;;;;;;;4.63;2.15;;;7.40;99.90;;;;;;5052739;28;20049;-81
2021/11/02 06:28:52;;;;;;;5.85;2.60;;;7.50;99.90;;;;;;5051383;28;20110;-81
2021/11/02 06:31:25;;;;;;;4.95;2.42;;;7.50;99.90;;;;;;5051637;28;20469;-80
2021/11/02 06:34:01;;;;;;;3.92;2.30;;;7.60;99.90;;;;;;5051458;28;20125;-78
2021/11/02 06:47:46;;;;;;;4.38;2.33;;;7.70;99.90;;;;;;5045862;28;20045;-81
2021/11/02 06:53:17;;;;;;;5.22;2.65;;;7.70;99.90;;;;;;5025226;28;20099;-81
2021/11/02 07:15:46;;;;;;;6.15;3.22;;;7.30;99.90;;;;;;5054674;28;20099;-81
2021/11/02 07:18:16;;;;;;;4.68;3.00;;;7.30;99.90;;;;;;5054952;28;20407;-79
2021/11/02 07:20:50;;;;;;;5.63;3.13;;;7.30;99.90;;;;;;5053330;28;20049;-78
2021/11/02 07:23:25;;;;;;;5.80;3.40;;;7.30;99.90;;;;;;5054656;28;20053;-79
2021/11/02 07:26:04;;;;;;;5.97;3.15;;;7.30;99.90;;;;;;5054518;28;20059;-79
2021/11/02 08:47:29;;;;;;;3.58;1.20;;;9.70;99.90;;;;;;5053116;28;20124;-76
2021/11/02 08:49:58;;;;;;;2.03;0.95;;;9.70;99.90;;;;;;5053232;28;20053;-80
2021/11/02 08:52:25;;;;;;;4.50;1.23;;;9.80;99.90;;;;;;5053220;28;20137;-79
2021/11/02 08:54:56;;;;;;;3.03;1.13;;;9.80;99.90;;;;;;5052889;28;20060;-80
2021/11/02 08:57:26;;;;;;;3.42;0.98;;;9.80;99.90;;;;;;5052880;28;20055;-80
2021/11/02 08:59:56;;;;;;;2.20;0.77;;;9.80;99.90;;;;;;5053811;28;20135;-76
2021/11/02 09:02:30;;;;;;;4.70;1.10;;;9.80;99.90;;;;;;5055325;28;20375;-81
2021/11/02 09:05:07;;;;;;;2.20;0.80;;;9.90;99.90;;;;;;5053174;28;20137;-78
2021/11/02 09:07:37;;;;;;;3.20;1.10;;;9.90;99.90;;;;;;5053282;28;20108;-79
2021/11/02 09:10:13;;;;;;;3.53;1.40;;;10.00;99.90;;;;;;5053353;28;20144;-81
2021/11/02 09:12:44;;;;;;;3.15;1.10;;;10.00;99.90;;;;;;5052501;28;20552;-78
2021/11/02 09:15:14;;;;;;;3.85;1.20;;;10.10;99.90;;;;;;5053667;28;20051;-80
2021/11/02 09:17:45;;;;;;;3.20;1.00;;;10.10;99.90;;;;;;5054468;28;20057;-81
2021/11/02 09:20:15;;;;;;;2.88;1.13;;;10.00;99.90;;;;;;5052894;28;20135;-78
2021/11/02 09:22:44;;;;;;;3.00;0.90;;;10.10;99.90;;;;;;5052397;28;20565;-80
2021/11/02 09:25:12;;;;;;;3.38;1.02;;;10.10;99.90;;;;;;5052115;28;20106;-80
2021/11/02 09:27:40;;;;;;;2.47;1.00;;;10.10;99.90;;;;;;5052416;28;20052;-81
2021/11/02 09:30:10;;;;;;;2.08;0.77;;;10.10;99.90;;;;;;5052014;28;20095;-78
2021/11/02 09:32:40;;;;;;;2.28;1.05;;;10.20;99.90;;;;;;5052097;28;20049;-80
2021/11/02 09:35:07;;;;;;;2.90;0.93;;;10.20;99.90;;;;;;5052223;28;20059;-79
2021/11/02 09:37:39;;;;;;;2.97;0.95;;;10.20;99.90;;;;;;5052053;28;20124;-77
2021/11/02 09:40:16;;;;;;;2.25;0.90;;;10.30;99.90;;;;;;5052055;28;20558;-79
2021/11/02 09:43:23;;;;;;;2.83;0.85;;;10.30;99.90;;;;;;5052068;28;20538;-79
2021/11/02 09:46:43;;;;;;;3.47;1.00;;;10.30;99.90;;;;;;5051741;28;20053;-79
2021/11/02 09:49:50;;;;;;;3.03;1.10;;;10.30;99.90;;;;;;5051986;28;20442;-76
2021/11/02 09:52:53;;;;;;;3.47;1.00;;;10.30;99.90;;;;;;5056781;28;20088;-79
2021/11/02 09:55:59;;;;;;;3.30;1.10;;;10.30;99.90;;;;;;5051693;28;20147;-79
2021/11/02 09:59:40;;;;;;;2.35;0.82;;;10.30;99.90;;;;;;5051881;28;20060;-77
2021/11/02 10:02:44;;;;;;;2.20;0.85;;;10.30;99.90;;;;;;5051757;28;20096;-81
2021/11/02 10:05:34;;;;;;;2.60;1.13;;;10.30;99.90;;;;;;5050416;28;20057;-77
2021/11/02 10:08:26;;;;;;;3.45;1.10;;;10.30;99.90;;;;;;5051607;28;20391;-79
2021/11/02 10:11:02;;;;;;;3.80;1.00;;;10.40;99.90;;;;;;5051611;28;20049;-78
2021/11/02 10:13:53;;;;;;;2.55;0.95;;;10.40;99.90;;;;;;5051823;28;20123;-78
2021/11/02 10:16:55;;;;;;;2.40;1.00;;;10.40;99.90;;;;;;5065607;28;20099;-80
2021/11/02 10:20:09;;;;;;;3.03;1.20;;;10.40;99.90;;;;;;5050105;28;20057;-77
2021/11/02 10:23:02;;;;;;;3.45;0.90;;;10.50;99.90;;;;;;5044503;28;20047;-80
2021/11/02 10:26:23;;;;;;;2.88;0.90;;;10.50;99.90;;;;;;5051524;28;20143;-80
2021/11/02 10:29:46;;;;;;;3.00;0.90;;;10.50;99.90;;;;;;5046627;28;20049;-81
2021/11/02 10:32:18;;;;;;;4.38;1.48;;;10.60;99.90;;;;;;5051860;28;20060;-80
2021/11/02 10:34:58;;;;;;;2.58;0.90;;;10.60;99.90;;;;;;5054662;28;20139;-79
2021/11/02 10:37:33;;;;;;;2.83;0.70;;;10.60;99.90;;;;;;5055388;28;20049;-80
2021/11/02 10:40:17;;;;;;;2.22;0.70;;;10.60;99.90;;;;;;5055536;28;20053;-81
2021/11/02 10:43:27;;;;;;;3.25;1.00;;;10.60;99.90;;;;;;5055247;28;20049;-78
2021/11/02 10:45:57;;;;;;;3.13;0.93;;;10.70;99.90;;;;;;5044041;28;20045;-80
2021/11/02 10:48:31;;;;;;;4.15;0.93;;;10.70;99.90;;;;;;5054684;28;20132;-79
2021/11/02 10:51:06;;;;;;;4.82;0.95;;;10.70;99.90;;;;;;5054819;28;20056;-78
2021/11/02 10:53:37;;;;;;;;;;;10.70;99.90;;;;;;5055601;28;20045;-80
2021/11/02 10:56:17;;;;;;;3.20;0.70;;;10.70;99.90;;;;;;5055253;28;19924;-79
2021/11/02 10:58:49;;;;;;;5.07;1.00;;;10.70;99.90;;;;;;5055050;28;20139;-79
2021/11/02 11:01:18;;;;;;;2.78;1.17;;;10.70;99.90;;;;;;5055318;28;20132;-79
2021/11/02 11:03:48;;;;;;;3.50;1.20;;;10.80;99.90;;;;;;5054702;28;20140;-81
2021/11/02 11:06:16;;;;;;;3.15;1.30;;;10.70;99.90;;;;;;5055214;28;20076;-78
2021/11/02 11:08:48;;;;;;;4.20;1.60;;;10.70;99.90;;;;;;5054905;28;20108;-80
2021/11/02 11:11:18;;;;;;;3.83;1.65;;;10.70;99.90;;;;;;5054765;28;20147;-81
2021/11/02 11:13:51;;;;;;;5.43;1.75;;;10.70;99.90;;;;;;5054962;28;20071;-81
2021/11/02 11:16:20;;;;;;;3.85;1.80;;;10.60;99.90;;;;;;5054551;28;20049;-80
2021/11/02 11:19:01;;;;;;;3.42;1.55;;;10.60;99.90;;;;;;5054836;28;20056;-77
2021/11/02 11:21:29;;;;;;;3.65;1.75;;;10.60;99.90;;;;;;5054681;28;20503;-79
2021/11/02 11:24:04;;;;;;;3.70;1.55;;;10.60;99.90;;;;;;5054777;28;20151;-81
2021/11/02 11:26:33;;;;;;;3.20;1.50;;;10.60;99.90;;;;;;5054747;28;20087;-80
2021/11/02 11:29:06;;;;;;;4.85;1.70;;;10.60;99.90;;;;;;5054031;28;20132;-81
2021/11/02 11:31:35;;;;;;;4.20;1.65;;;10.60;99.90;;;;;;5054192;28;20417;-80
2021/11/02 11:34:04;;;;;;;3.47;1.60;;;10.70;99.90;;;;;;5054261;28;20131;-80
2021/11/02 11:36:34;;;;;;;4.93;1.90;;;10.70;99.90;;;;;;5054160;28;20106;-81
2021/11/02 11:39:05;;;;;;;3.70;1.50;;;10.70;99.90;;;;;;5061217;28;20071;-79
2021/11/02 11:41:35;;;;;;;3.88;1.23;;;10.80;99.90;;;;;;5056955;28;20053;-79
2021/11/02 11:44:06;;;;;;;3.13;1.27;;;10.80;99.90;;;;;;5053123;28;20048;-81
2021/11/02 11:46:34;;;;;;;2.83;1.10;;;10.80;99.90;;;;;;5054162;28;20132;-79
2021/11/02 11:49:01;;;;;;;3.50;1.10;;;10.90;99.90;;;;;;5054449;28;20129;-80
2021/11/02 11:51:31;;;;;;;2.33;1.00;;;11.00;99.90;;;;;;5054267;28;20088;-81
2021/11/02 11:54:01;;;;;;;2.60;1.00;;;11.10;99.90;;;;;;5053912;28;20053;-79
2021/11/02 11:56:36;;;;;;;4.45;1.00;;;11.10;99.90;;;;;;5053969;28;20135;-81
2021/11/02 11:59:17;;;;;;;2.33;0.93;;;11.10;99.90;;;;;;5053988;28;20052;-80
2021/11/02 12:01:58;;;;;;;2.42;1.05;;;11.10;99.90;;;;;;5053878;28;20056;-80
2021/11/02 12:04:35;;;;;;;1.83;0.90;;;11.10;99.90;;;;;;5053715;28;20140;-80
2021/11/02 12:07:11;;;;;;;2.10;0.80;;;11.10;99.90;;;;;;5053997;28;20060;-80
2021/11/02 12:09:44;;;;;;;1.35;0.55;;;11.10;99.90;;;;;;5053792;28;20132;-80
2021/11/02 12:12:13;;;;;;;0.68;0.40;;;11.00;99.90;;;;;;5054073;28;20136;-78
2021/11/02 12:14:50;;;;;;;0.68;0.32;;;10.90;99.90;;;;;;5053893;28;20140;-80
2021/11/02 12:17:19;;;;;;;1.30;0.50;;;10.80;99.90;;;;;;5053774;28;20132;-81
2021/11/02 12:19:58;;;;;;;2.17;0.40;;;10.80;99.90;;;;;;5052940;28;20076;-79
2021/11/02 12:22:47;;;;;;;1.20;0.40;;;10.70;99.90;;;;;;5033461;28;20352;-78
2021/11/02 12:25:23;;;;;;;1.90;0.40;;;10.60;99.90;;;;;;5033528;28;20060;-79
2021/11/02 12:27:51;;;;;;;1.10;0.50;;;10.50;99.90;;;;;;5033403;28;20049;-80
2021/11/02 12:30:23;;;;;;;1.40;0.40;;;10.50;99.90;;;;;;5033120;28;20144;-80
2021/11/02 12:32:56;;;;;;;0.60;0.30;;;10.60;99.90;;;;;;5033323;28;20132;-78
2021/11/02 12:35:48;;;;;;;0.65;0.30;;;10.50;99.90;;;;;;5035423;28;20057;-79
2021/11/02 12:38:15;;;;;;;1.27;0.43;;;10.60;99.90;;;;;;5053166;28;20110;-79
2021/11/02 12:40:45;;;;;;;1.58;0.50;;;10.70;99.90;;;;;;5052983;28;20136;-80
2021/11/02 12:43:24;;;;;;;0.98;0.40;;;10.80;99.90;;;;;;5052956;28;20059;-79
2021/11/02 12:45:54;;;;;;;1.75;0.50;;;10.90;99.90;;;;;;5053031;28;20136;-79
2021/11/02 12:48:22;;;;;;;1.23;0.50;;;11.10;99.90;;;;;;5053158;28;20136;-78
2021/11/02 12:50:51;;;;;;;1.25;0.40;;;11.20;99.90;;;;;;5052749;28;20088;-80
2021/11/02 12:53:20;;;;;;;1.02;0.38;;;11.40;99.90;;;;;;5052880;28;20124;-78
2021/11/02 12:55:47;;;;;;;1.17;0.50;;;11.50;99.90;;;;;;5052569;28;20144;-78
2021/11/02 12:58:19;;;;;;;1.38;0.52;;;11.80;99.90;;;;;;5053033;28;20144;-76
2021/11/02 13:00:50;;;;;;;1.30;0.50;;;12.20;99.90;;;;;;5052810;28;20099;-80
2021/11/02 13:03:30;;;;;;;1.70;0.50;;;12.40;99.90;;;;;;5052824;28;20345;-81
2021/11/02 13:06:00;;;;;;;2.15;0.60;;;12.50;98.80;;;;;;5052610;28;20483;-79
2021/11/02 13:08:35;;;;;;;0.98;0.40;;;12.40;98.30;;;;;;5052965;28;20049;-80
2021/11/02 13:11:09;;;;;;;1.38;0.50;;;12.30;98.50;;;;;;5051527;28;20052;-79
2021/11/02 13:14:07;;;;;;;1.70;0.50;;;12.20;98.80;;;;;;5050273;28;20045;-77
2021/11/02 13:16:56;;;;;;;1.13;0.55;;;12.10;99.20;;;;;;5050168;28;20059;-79
2021/11/02 13:19:26;;;;;;;1.40;0.55;;;12.10;99.40;;;;;;5049634;28;20088;-81
2021/11/02 13:21:53;;;;;;;1.52;0.50;;;12.10;98.50;;;;;;5048934;28;20288;-77
2021/11/02 13:24:27;;;;;;;1.67;0.60;;;11.90;98.10;;;;;;5048941;28;20048;-79
2021/11/02 13:26:57;;;;;;;1.38;0.60;;;11.80;98.30;;;;;;5086594;28;20131;-80
2021/11/02 13:29:26;;;;;;;1.52;0.50;;;11.80;98.50;;;;;;5049609;28;20041;-78
2021/11/02 13:31:54;;;;;;;1.17;0.40;;;11.70;98.70;;;;;;5048402;28;20132;-78
2021/11/02 13:34:39;;;;;;;1.38;0.50;;;11.70;98.70;;;;;;5049450;28;20452;-79
2021/11/02 13:37:10;;;;;;;1.40;0.45;;;;;;;;;;5048992;28;20072;-79
2021/11/02 13:39:55;;;;;;;1.58;0.50;;;14.40;95.10;;;;;;5049543;28;20102;-79
2021/11/02 13:42:48;;;;;;;1.33;0.50;;;14.50;93.40;;;;;;5049027;28;20087;-78
2021/11/02 13:45:23;;;;;;;3.75;0.85;;;14.00;92.40;;;;;;5049016;28;20052;-79
2021/11/02 13:47:50;;;;;;;3.30;0.20;;;13.30;94.10;;;;;;5048686;28;20139;-79
2021/11/02 13:50:20;;;;;;;2.15;0.20;;;12.20;95.90;;;;;;5048340;28;20158;-78
2021/11/02 13:52:52;;;;;;;0.65;0.20;;;11.40;97.20;;;;;;5048510;28;20057;-78
2021/11/02 13:55:19;;;;;;;1.42;0.40;;;10.80;98.90;;;;;;5048359;28;20483;-81
2021/11/02 13:57:46;;;;;;;0.70;0.10;;;10.30;99.90;;;;;;5048718;28;20140;-78
2021/11/02 14:00:16;;;;;;;1.02;0.30;;;10.10;99.90;;;;;;5042970;28;20041;-79
2021/11/02 14:02:44;;;;;;;1.88;0.50;;;9.80;99.90;;;;;;5048693;28;20121;-80
2021/11/02 14:05:12;;;;;;;1.38;0.40;;;9.60;99.90;;;;;;5048281;28;20505;-77
2021/11/02 14:07:41;;;;;;;1.15;0.30;;;9.50;99.90;;;;;;5048208;28;20489;-77
2021/11/02 14:10:10;;;;;;;0.57;0.20;;;9.50;99.90;;;;;;5049931;28;20053;-77
2021/11/02 14:12:45;;;;;;;1.10;0.40;;;9.40;99.90;;;;;;5052311;28;20502;-79
2021/11/02 14:15:20;;;;;;;1.42;0.40;;;9.40;99.90;;;;;;5049430;28;20132;-80
2021/11/02 14:17:48;;;;;;;;;;;9.30;99.90;;;;;;5048807;28;20059;-80
2021/11/02 14:20:38;;;;;;;1.40;0.20;;;9.30;99.90;;;;;;5048161;28;19927;-80
2021/11/02 14:23:09;;;;;;;1.23;0.35;;;9.30;99.90;;;;;;5048644;28;20049;-77
2021/11/02 14:25:38;;;;;;;2.35;0.57;;;9.30;99.90;;;;;;5048539;28;20055;-79
2021/11/02 14:28:07;;;;;;;0.93;0.40;;;9.30;99.90;;;;;;5049365;28;20136;-78
2021/11/02 14:30:40;;;;;;;0.93;0.25;;;9.30;99.90;;;;;;5048189;28;20135;-80
2021/11/02 14:33:08;;;;;;;0.70;0.25;;;9.40;99.90;;;;;;5048561;28;20109;-79
2021/11/02 14:35:54;;;;;;;1.90;0.40;;;9.40;99.90;;;;;;5048999;28;20139;-79
2021/11/02 14:38:25;;;;;;;1.05;0.43;;;9.40;99.90;;;;;;5048555;28;20149;-79
2021/11/02 14:40:57;;;;;;;2.05;0.47;;;9.40;99.90;;;;;;5050751;28;20052;-79
2021/11/02 14:43:30;;;;;;;0.73;0.30;;;9.40;99.90;;;;;;5048182;28;20120;-79
2021/11/02 14:46:00;;;;;;;1.33;0.30;;;9.40;99.90;;;;;;5048628;28;20143;-80
2021/11/02 14:48:49;;;;;;;1.55;0.50;;;9.30;99.90;;;;;;5049029;28;20053;-80
2021/11/02 14:51:28;;;;;;;2.40;0.40;;;9.40;99.90;;;;;;5048724;28;20056;-81
2021/11/02 14:54:01;;;;;;;0.70;0.30;;;10.30;99.90;;;;;;5048784;28;20071;-80
2021/11/02 14:56:35;;;;;;;1.45;0.40;;;12.40;99.90;;;;;;5047352;28;20052;-79
2021/11/02 14:59:05;;;;;;;1.00;0.50;;;14.40;99.90;;;;;;5048518;28;20141;-80
2021/11/02 15:02:15;;;;;;;1.45;0.55;;;16.40;96.40;;;;;;5048694;28;20050;-80
2021/11/02 15:04:43;;;;;;;1.55;0.50;;;18.70;91.10;;;;;;5048773;28;20426;-78
2021/11/02 15:07:12;;;;;;;0.68;0.40;;;19.90;77.70;;;;;;5048852;28;20059;-78
2021/11/02 15:09:41;;;;;;;1.02;0.40;;;19.00;75.40;;;;;;5048548;28;20106;-80
2021/11/02 15:12:09;;;;;;;1.17;0.32;;;18.00;77.50;;;;;;5048289;28;20129;-79
2021/11/02 15:14:39;;;;;;;1.50;0.43;;;16.90;80.10;;;;;;5048754;28;20156;-80
2021/11/02 15:17:10;;;;;;;1.27;0.55;;;16.50;82.50;;;;;;5053114;28;20045;-78
2021/11/02 15:19:40;;;;;;;1.95;0.60;;;15.70;85.90;;;;;;5051355;28;20677;-78
2021/11/02 15:22:11;;;;;;;1.55;0.60;;;14.90;90.10;;;;;;5052050;28;20136;-77
2021/11/02 15:24:41;;;;;;;0.90;0.40;;;14.30;91.90;;;;;;5052027;28;20049;-76
2021/11/02 15:27:11;;;;;;;1.48;0.60;;;13.70;93.70;;;;;;5052008;28;20139;-80
2021/11/02 15:29:41;;;;;;;1.65;0.40;;;13.60;95.70;;;;;;5051603;28;20057;-79
2021/11/02 15:32:12;;;;;;;1.00;0.50;;;14.10;95.70;;;;;;5052035;28;20136;-81
2021/11/02 15:34:51;;;;;;;1.30;0.43;;;14.90;94.20;;;;;;5051056;28;20124;-79
2021/11/02 15:37:22;;;;;;;1.25;0.50;;;14.70;93.20;;;;;;5051447;28;20052;-80
2021/11/02 15:39:56;;;;;;;1.20;0.40;;;14.20;93.40;;;;;;5051273;28;20577;-80
2021/11/02 15:42:30;;;;;;;1.70;0.60;;;13.70;94.10;;;;;;5051362;28;20079;-78
2021/11/02 15:44:59;;;;;;;1.95;0.52;;;13.20;95.00;;;;;;5051454;28;20430;-80
2021/11/02 15:47:28;;;;;;;1.40;0.60;;;12.80;95.70;;;;;;5051384;28;20124;-81
2021/11/02 15:49:58;;;;;;;1.90;0.60;;;12.40;96.70;;;;;;5049181;28;20126;-76
2021/11/02 15:52:28;;;;;;;2.75;0.70;;;12.00;97.50;;;;;;5048323;28;20738;-78
2021/11/02 15:55:03;;;;;;;1.40;0.60;;;11.70;98.40;;;;;;5050092;28;20106;-81
2021/11/02 15:57:39;;;;;;;2.90;0.82;;;11.40;99.10;;;;;;5052787;28;20140;-86
2021/11/02 16:00:09;;;;;;;1.67;0.70;;;11.10;99.80;;;;;;5050205;28;20495;-79
2021/11/02 16:02:39;;;;;;;2.08;0.70;;;10.90;99.90;;;;;;5049503;28;20084;-79
2021/11/02 16:05:09;;;;;;;2.10;0.80;;;10.70;99.90;;;;;;5050048;28;20059;-81
2021/11/02 16:07:36;;;;;;;1.30;0.70;;;10.60;99.90;;;;;;5049648;28;20143;-79
2021/11/02 16:10:06;;;;;;;1.73;0.60;;;10.50;99.90;;;;;;5046246;28;20152;-79
2021/11/02 16:12:36;;;;;;;2.55;0.80;;;10.40;99.90;;;;;;5050863;28;20144;-79
2021/11/02 16:15:15;;;;;;;2.60;0.80;;;10.20;99.90;;;;;;5050188;28;20116;-80
2021/11/02 16:17:46;;;;;;;2.38;0.80;;;10.20;99.90;;;;;;5030792;28;20463;-82
2021/11/02 16:20:22;;;;;;;2.58;1.00;;;10.10;99.90;;;;;;5031023;28;20137;-81
2021/11/02 16:22:57;;;;;;;3.47;1.20;;;10.00;99.90;;;;;;5030674;28;20164;-81
2021/11/02 16:25:27;;;;;;;4.10;1.50;;;9.90;99.90;;;;;;5038558;28;20349;-81
2021/11/02 16:28:02;;;;;;;2.83;1.25;;;9.80;99.90;;;;;;5048473;28;20112;-81
2021/11/02 16:30:34;;;;;;;4.18;1.70;;;9.80;99.90;;;;;;5048809;28;20053;-81
2021/11/02 16:33:02;;;;;;;3.63;1.30;;;9.70;99.90;;;;;;5050095;28;20045;-80
2021/11/02 16:35:48;;;;;;;3.83;1.88;;;9.60;99.90;;;;;;5052153;28;20049;-80
2021/11/02 16:38:33;;;;;;;3.22;1.60;;;9.60;99.90;;;;;;5035684;28;20076;-80
2021/11/02 16:41:04;;;;;;;4.47;1.65;;;9.60;99.90;;;;;;5049910;28;20056;-80
2021/11/02 16:43:35;;;;;;;3.38;1.80;;;9.50;99.90;;;;;;5052466;28;20091;-79
2021/11/02 16:46:09;;;;;;;3.03;1.40;;;9.50;99.90;;;;;;5050875;28;20131;-78
2021/11/02 16:48:45;;;;;;;3.17;1.30;;;9.40;99.90;;;;;;5050183;28;20124;-80
2021/11/02 16:51:15;;;;;;;3.20;1.00;;;9.40;99.90;;;;;;5050892;28;20558;-78
2021/11/02 16:53:44;;;;;;;2.00;0.88;;;9.40;99.90;;;;;;5049936;28;20440;-82
2021/11/02 16:56:25;;;;;;;1.67;0.77;;;9.30;99.90;;;;;;5049032;28;20045;-78
2021/11/02 16:58:54;;;;;;;1.95;0.90;;;9.30;99.90;;;;;;5057466;28;20049;-81
2021/11/02 17:01:35;;;;;;;2.63;0.90;;;9.30;99.90;;;;;;5063138;28;20127;-79
2021/11/02 17:04:20;;;;;;;2.17;0.90;;;9.30;99.90;;;;;;5082308;28;20053;-79
2021/11/02 17:06:47;;;;;;;2.17;0.95;;;9.20;99.90;;;;;;5054146;28;20045;-78
2021/11/02 17:09:17;;;;;;;4.30;1.30;;;9.20;99.90;;;;;;5055794;28;20100;-80
2021/11/02 17:11:55;;;;;;;3.42;1.33;;;9.20;99.90;;;;;;5056129;28;20072;-80
2021/11/02 17:14:23;;;;;;;3.85;1.20;;;9.10;99.90;;;;;;5051694;28;20123;-79
2021/11/02 17:17:00;;;;;;;3.08;1.30;;;9.20;99.90;;;;;;5049345;28;20045;-80
2021/11/02 17:19:28;;;;;;;3.78;1.40;;;9.10;99.90;;;;;;5049277;28;20049;-81
2021/11/02 17:21:58;;;;;;;3.30;1.33;;;9.10;99.90;;;;;;5048344;28;20158;-80
2021/11/02 17:24:28;;;;;;;3.70;1.25;;;9.00;99.90;;;;;;5048728;28;20558;-79
2021/11/02 17:26:57;;;;;;;3.30;1.38;;;9.00;99.90;;;;;;5048771;28;20128;-78
2021/11/02 17:29:27;;;;;;;2.75;1.10;;;9.00;99.90;;;;;;5048994;28;20059;-81
2021/11/02 17:31:56;;;;;;;2.17;1.08;;;9.00;99.90;;;;;;5049329;28;20132;-81
2021/11/02 17:34:26;;;;;;;2.88;1.10;;;9.00;99.90;;;;;;5048839;28;20140;-80
2021/11/02 17:37:01;;;;;;;3.83;1.52;;;9.00;99.90;;;;;;5055831;28;20722;-80
2021/11/02 17:39:34;;;;;;;3.55;1.10;;;9.00;99.90;;;;;;5052638;28;20051;-80
2021/11/02 17:42:04;;;;;;;2.42;1.00;;;9.00;99.90;;;;;;5057612;28;20128;-79
2021/11/02 17:44:33;;;;;;;3.10;1.13;;;9.00;99.90;;;;;;5049750;28;20049;-80
2021/11/02 17:47:02;;;;;;;3.45;1.20;;;9.00;99.90;;;;;;5053624;28;20140;-79
2021/11/02 17:49:30;;;;;;;3.90;0.98;;;9.00;99.90;;;;;;5055413;28;20129;-78
2021/11/02 17:51:58;;;;;;;2.95;1.20;;;9.00;99.90;;;;;;5050706;28;20057;-81